sensor_id;sensor_type;location;lat;lon;timestamp;pressure;altitude;pressure_sealevel;temperature
15544;BMP180;7873;52.230;12.856;2023-07-31T00:02:25;100373.94;;;25.01
15544;BMP180;7873;52.230;12.856;2023-07-31T00:04:52;100375.78;;;25.01
15544;BMP180;7873;52.230;12.856;2023-07-31T00:07:18;100372.25;;;25.00
15544;BMP180;7873;52.230;12.856;2023-07-31T00:09:45;100380.34;;;25.00
15544;BMP180;7873;52.230;12.856;2023-07-31T00:12:13;100382.00;;;25.01
15544;BMP180;7873;52.230;12.856;2023-07-31T00:14:40;100381.16;;;25.01
15544;BMP180;7873;52.230;12.856;2023-07-31T00:17:06;100368.72;;;25.00
15544;BMP180;7873;52.230;12.856;2023-07-31T00:19:33;100372.25;;;25.00
15544;BMP180;7873;52.230;12.856;2023-07-31T00:22:00;100359.59;;;25.01
15544;BMP180;7873;52.230;12.856;2023-07-31T00:24:26;100365.00;;;25.01
15544;BMP180;7873;52.230;12.856;2023-07-31T00:26:53;100364.19;;;25.00
15544;BMP180;7873;52.230;12.856;2023-07-31T00:29:21;100356.72;;;25.02
15544;BMP180;7873;52.230;12.856;2023-07-31T00:31:48;100356.91;;;25.01
15544;BMP180;7873;52.230;12.856;2023-07-31T00:34:14;100359.44;;;25.02
15544;BMP180;7873;52.230;12.856;2023-07-31T00:36:41;100347.81;;;25.02
15544;BMP180;7873;52.230;12.856;2023-07-31T00:39:08;100338.91;;;25.01
15544;BMP180;7873;52.230;12.856;2023-07-31T00:41:34;100349.69;;;25.01
15544;BMP180;7873;52.230;12.856;2023-07-31T00:44:01;100348.03;;;25.00
15544;BMP180;7873;52.230;12.856;2023-07-31T00:46:29;100347.00;;;25.01
15544;BMP180;7873;52.230;12.856;2023-07-31T00:48:56;100329.97;;;25.01
15544;BMP180;7873;52.230;12.856;2023-07-31T00:51:24;100315.25;;;24.97
15544;BMP180;7873;52.230;12.856;2023-07-31T00:53:51;100311.75;;;24.96
15544;BMP180;7873;52.230;12.856;2023-07-31T00:56:19;100323.16;;;24.98
15544;BMP180;7873;52.230;12.856;2023-07-31T00:58:46;100318.56;;;24.99
15544;BMP180;7873;52.230;12.856;2023-07-31T01:01:13;100313.19;;;24.99
15544;BMP180;7873;52.230;12.856;2023-07-31T01:03:41;100312.38;;;24.98
15544;BMP180;7873;52.230;12.856;2023-07-31T01:06:14;100311.34;;;24.99
15544;BMP180;7873;52.230;12.856;2023-07-31T01:08:46;100314.84;;;25.00
15544;BMP180;7873;52.230;12.856;2023-07-31T01:11:17;100311.53;;;24.98
15544;BMP180;7873;52.230;12.856;2023-07-31T01:13:45;100301.59;;;24.98
15544;BMP180;7873;52.230;12.856;2023-07-31T01:16:12;100301.59;;;24.98
15544;BMP180;7873;52.230;12.856;2023-07-31T01:18:39;100302.22;;;25.00
15544;BMP180;7873;52.230;12.856;2023-07-31T01:21:18;100299.53;;;25.00
15544;BMP180;7873;52.230;12.856;2023-07-31T01:24:14;100288.75;;;25.00
15544;BMP180;7873;52.230;12.856;2023-07-31T01:26:49;100296.00;;;25.00
15544;BMP180;7873;52.230;12.856;2023-07-31T01:29:24;100292.25;;;25.01
15544;BMP180;7873;52.230;12.856;2023-07-31T01:31:53;100288.75;;;25.00
15544;BMP180;7873;52.230;12.856;2023-07-31T01:34:22;100294.13;;;25.00
15544;BMP180;7873;52.230;12.856;2023-07-31T01:36:48;100296.00;;;25.00
15544;BMP180;7873;52.230;12.856;2023-07-31T01:39:15;100297.88;;;24.99
15544;BMP180;7873;52.230;12.856;2023-07-31T01:41:42;100302.41;;;24.99
15544;BMP180;7873;52.230;12.856;2023-07-31T01:44:10;100294.53;;;24.97
15544;BMP180;7873;52.230;12.856;2023-07-31T01:46:37;100296.22;;;24.98
15544;BMP180;7873;52.230;12.856;2023-07-31T01:49:03;100295.38;;;24.98
15544;BMP180;7873;52.230;12.856;2023-07-31T01:51:31;100300.75;;;24.98
15544;BMP180;7873;52.230;12.856;2023-07-31T01:53:59;100298.28;;;24.96
15544;BMP180;7873;52.230;12.856;2023-07-31T01:56:26;100299.09;;;24.97
15544;BMP180;7873;52.230;12.856;2023-07-31T01:58:53;100286.66;;;24.96
15544;BMP180;7873;52.230;12.856;2023-07-31T02:01:21;100282.94;;;24.97
15544;BMP180;7873;52.230;12.856;2023-07-31T02:03:47;100275.88;;;24.96
15544;BMP180;7873;52.230;12.856;2023-07-31T02:06:14;100273.00;;;24.97
15544;BMP180;7873;52.230;12.856;2023-07-31T02:08:41;100272.16;;;24.97
15544;BMP180;7873;52.230;12.856;2023-07-31T02:11:07;100275.47;;;24.99
15544;BMP180;7873;52.230;12.856;2023-07-31T02:13:34;100266.56;;;24.98
15544;BMP180;7873;52.230;12.856;2023-07-31T02:16:00;100267.59;;;24.97
15544;BMP180;7873;52.230;12.856;2023-07-31T02:18:29;100269.28;;;24.98
15544;BMP180;7873;52.230;12.856;2023-07-31T02:20:55;100273.81;;;24.98
15544;BMP180;7873;52.230;12.856;2023-07-31T02:23:22;100277.53;;;24.97
15544;BMP180;7873;52.230;12.856;2023-07-31T02:25:49;100263.25;;;24.96
15544;BMP180;7873;52.230;12.856;2023-07-31T02:28:16;100264.06;;;24.97
15544;BMP180;7873;52.230;12.856;2023-07-31T02:30:44;100272.38;;;24.95
15544;BMP180;7873;52.230;12.856;2023-07-31T02:33:10;100260.75;;;24.95
15544;BMP180;7873;52.230;12.856;2023-07-31T02:35:38;100259.72;;;24.96
15544;BMP180;7873;52.230;12.856;2023-07-31T02:38:05;100266.13;;;24.95
15544;BMP180;7873;52.230;12.856;2023-07-31T02:40:32;100253.50;;;24.95
15544;BMP180;7873;52.230;12.856;2023-07-31T02:42:58;100253.69;;;24.94
15544;BMP180;7873;52.230;12.856;2023-07-31T02:45:25;100263.44;;;24.95
15544;BMP180;7873;52.230;12.856;2023-07-31T02:47:52;100259.09;;;24.94
15544;BMP180;7873;52.230;12.856;2023-07-31T02:50:18;100256.38;;;24.94
15544;BMP180;7873;52.230;12.856;2023-07-31T02:52:46;100253.88;;;24.92
15544;BMP180;7873;52.230;12.856;2023-07-31T02:55:13;100260.94;;;24.93
15544;BMP180;7873;52.230;12.856;2023-07-31T02:57:40;100257.88;;;24.96
15544;BMP180;7873;52.230;12.856;2023-07-31T03:00:07;100256.00;;;24.97
15544;BMP180;7873;52.230;12.856;2023-07-31T03:02:35;100258.09;;;25.01
15544;BMP180;7873;52.230;12.856;2023-07-31T03:05:01;100258.72;;;25.03
15544;BMP180;7873;52.230;12.856;2023-07-31T03:07:28;100254.75;;;25.06
15544;BMP180;7873;52.230;12.856;2023-07-31T03:09:57;100257.28;;;25.07
15544;BMP180;7873;52.230;12.856;2023-07-31T03:12:23;100251.69;;;25.09
15544;BMP180;7873;52.230;12.856;2023-07-31T03:14:50;100247.97;;;25.10
15544;BMP180;7873;52.230;12.856;2023-07-31T03:17:17;100246.94;;;25.11
15544;BMP180;7873;52.230;12.856;2023-07-31T03:19:43;100246.09;;;25.10
15544;BMP180;7873;52.230;12.856;2023-07-31T03:22:10;100239.66;;;25.11
15544;BMP180;7873;52.230;12.856;2023-07-31T03:24:37;100236.97;;;25.11
15544;BMP180;7873;52.230;12.856;2023-07-31T03:27:06;100225.16;;;25.12
15544;BMP180;7873;52.230;12.856;2023-07-31T03:29:32;100225.16;;;25.12
15544;BMP180;7873;52.230;12.856;2023-07-31T03:31:59;100221.44;;;25.13
15544;BMP180;7873;52.230;12.856;2023-07-31T03:34:26;100219.78;;;25.12
15544;BMP180;7873;52.230;12.856;2023-07-31T03:36:53;100219.38;;;25.15
15544;BMP180;7873;52.230;12.856;2023-07-31T03:39:20;100221.03;;;25.16
15544;BMP180;7873;52.230;12.856;2023-07-31T03:41:47;100222.06;;;25.15
15544;BMP180;7873;52.230;12.856;2023-07-31T03:44:15;100216.28;;;25.12
15544;BMP180;7873;52.230;12.856;2023-07-31T03:46:41;100222.47;;;25.12
15544;BMP180;7873;52.230;12.856;2023-07-31T03:49:08;100214.78;;;25.09
15544;BMP180;7873;52.230;12.856;2023-07-31T03:51:35;100216.88;;;25.07
15544;BMP180;7873;52.230;12.856;2023-07-31T03:54:02;100213.97;;;25.09
15544;BMP180;7873;52.230;12.856;2023-07-31T03:56:29;100215.41;;;25.05
15544;BMP180;7873;52.230;12.856;2023-07-31T03:58:55;100214.78;;;25.03
15544;BMP180;7873;52.230;12.856;2023-07-31T04:01:23;100217.66;;;24.95
15544;BMP180;7873;52.230;12.856;2023-07-31T04:03:50;100213.31;;;25.00
15544;BMP180;7873;52.230;12.856;2023-07-31T04:06:17;100211.44;;;25.01
15544;BMP180;7873;52.230;12.856;2023-07-31T04:08:44;100214.97;;;25.01
15544;BMP180;7873;52.230;12.856;2023-07-31T04:11:11;100219.31;;;24.96
15544;BMP180;7873;52.230;12.856;2023-07-31T04:13:37;100210.16;;;24.90
15544;BMP180;7873;52.230;12.856;2023-07-31T04:16:04;100207.66;;;24.82
15544;BMP180;7873;52.230;12.856;2023-07-31T04:18:32;100210.34;;;24.82
15544;BMP180;7873;52.230;12.856;2023-07-31T04:20:59;100203.75;;;24.85
15544;BMP180;7873;52.230;12.856;2023-07-31T04:23:26;100211.00;;;24.91
15544;BMP180;7873;52.230;12.856;2023-07-31T04:25:53;100203.34;;;24.94
15544;BMP180;7873;52.230;12.856;2023-07-31T04:28:20;100200.03;;;24.86
15544;BMP180;7873;52.230;12.856;2023-07-31T04:30:46;100195.44;;;24.86
15544;BMP180;7873;52.230;12.856;2023-07-31T04:33:13;100196.47;;;24.85
15544;BMP180;7873;52.230;12.856;2023-07-31T04:35:41;100194.22;;;24.89
15544;BMP180;7873;52.230;12.856;2023-07-31T04:38:08;100189.25;;;24.92
15544;BMP180;7873;52.230;12.856;2023-07-31T04:40:34;100183.47;;;24.95
15544;BMP180;7873;52.230;12.856;2023-07-31T04:43:01;100180.56;;;24.97
15544;BMP180;7873;52.230;12.856;2023-07-31T04:45:28;100181.78;;;24.94
15544;BMP180;7873;52.230;12.856;2023-07-31T04:47:54;100177.84;;;24.90
15544;BMP180;7873;52.230;12.856;2023-07-31T04:50:21;100175.16;;;24.90
15544;BMP180;7873;52.230;12.856;2023-07-31T04:52:49;100183.22;;;24.90
15544;BMP180;7873;52.230;12.856;2023-07-31T04:55:16;100183.22;;;24.90
15544;BMP180;7873;52.230;12.856;2023-07-31T04:57:43;100180.34;;;24.92
15544;BMP180;7873;52.230;12.856;2023-07-31T05:00:10;100182.63;;;24.95
15544;BMP180;7873;52.230;12.856;2023-07-31T05:02:37;100187.63;;;24.98
15544;BMP180;7873;52.230;12.856;2023-07-31T05:05:04;100177.69;;;24.98
15544;BMP180;7873;52.230;12.856;2023-07-31T05:07:30;100180.78;;;24.95
15544;BMP180;7873;52.230;12.856;2023-07-31T05:09:59;100189.69;;;24.96
15544;BMP180;7873;52.230;12.856;2023-07-31T05:12:25;100183.25;;;24.97
15544;BMP180;7873;52.230;12.856;2023-07-31T05:14:52;100187.16;;;24.94
15544;BMP180;7873;52.230;12.856;2023-07-31T05:17:19;100193.00;;;24.98
15544;BMP180;7873;52.230;12.856;2023-07-31T05:19:45;100185.53;;;25.00
15544;BMP180;7873;52.230;12.856;2023-07-31T05:22:12;100187.41;;;24.99
15544;BMP180;7873;52.230;12.856;2023-07-31T05:24:39;100187.19;;;25.01
15544;BMP180;7873;52.230;12.856;2023-07-31T05:27:07;100184.31;;;25.02
15544;BMP180;7873;52.230;12.856;2023-07-31T05:29:35;100189.50;;;25.04
15544;BMP180;7873;52.230;12.856;2023-07-31T05:32:02;100194.88;;;25.04
15544;BMP180;7873;52.230;12.856;2023-07-31T05:34:28;100188.44;;;25.05
15544;BMP180;7873;52.230;12.856;2023-07-31T05:36:55;100179.75;;;25.03
15544;BMP180;7873;52.230;12.856;2023-07-31T05:39:22;100187.41;;;24.93
15544;BMP180;7873;52.230;12.856;2023-07-31T05:41:49;100184.25;;;24.89
15544;BMP180;7873;52.230;12.856;2023-07-31T05:44:17;100188.63;;;24.90
15544;BMP180;7873;52.230;12.856;2023-07-31T05:46:44;100181.78;;;24.94
15544;BMP180;7873;52.230;12.856;2023-07-31T05:49:10;100183.06;;;24.98
15544;BMP180;7873;52.230;12.856;2023-07-31T05:51:37;100180.38;;;24.98
15544;BMP180;7873;52.230;12.856;2023-07-31T05:54:04;100173.09;;;24.99
15544;BMP180;7873;52.230;12.856;2023-07-31T05:56:30;100183.69;;;25.00
15544;BMP180;7873;52.230;12.856;2023-07-31T05:58:59;100180.78;;;25.02
15544;BMP180;7873;52.230;12.856;2023-07-31T06:01:27;100172.06;;;25.00
15544;BMP180;7873;52.230;12.856;2023-07-31T06:03:53;100173.09;;;24.99
15544;BMP180;7873;52.230;12.856;2023-07-31T06:06:20;100170.00;;;24.95
15544;BMP180;7873;52.230;12.856;2023-07-31T06:08:47;100175.78;;;24.92
15544;BMP180;7873;52.230;12.856;2023-07-31T06:11:13;100160.66;;;24.91
15544;BMP180;7873;52.230;12.856;2023-07-31T06:13:40;100163.34;;;24.91
15544;BMP180;7873;52.230;12.856;2023-07-31T06:16:07;100157.97;;;24.91
15544;BMP180;7873;52.230;12.856;2023-07-31T06:18:35;100161.69;;;24.90
15544;BMP180;7873;52.230;12.856;2023-07-31T06:21:02;100157.34;;;24.89
15544;BMP180;7873;52.230;12.856;2023-07-31T06:23:29;100162.94;;;24.88
15544;BMP180;7873;52.230;12.856;2023-07-31T06:25:55;100162.31;;;24.86
15544;BMP180;7873;52.230;12.856;2023-07-31T06:28:27;100157.97;;;24.85
15544;BMP180;7873;52.230;12.856;2023-07-31T06:30:53;100163.34;;;24.85
15544;BMP180;7873;52.230;12.856;2023-07-31T06:33:20;100152.94;;;24.82
15544;BMP180;7873;52.230;12.856;2023-07-31T06:35:48;100158.16;;;24.83
15544;BMP180;7873;52.230;12.856;2023-07-31T06:38:15;100165.38;;;24.83
15544;BMP180;7873;52.230;12.856;2023-07-31T06:40:41;100154.63;;;24.83
15544;BMP180;7873;52.230;12.856;2023-07-31T06:43:08;100151.09;;;24.82
15544;BMP180;7873;52.230;12.856;2023-07-31T06:45:35;100157.31;;;24.83
15544;BMP180;7873;52.230;12.856;2023-07-31T06:48:03;100162.91;;;24.81
15544;BMP180;7873;52.230;12.856;2023-07-31T06:50:29;100156.69;;;24.81
15544;BMP180;7873;52.230;12.856;2023-07-31T06:52:58;100162.91;;;24.81
15544;BMP180;7873;52.230;12.856;2023-07-31T06:55:25;100158.56;;;24.80
15544;BMP180;7873;52.230;12.856;2023-07-31T06:57:54;100153.16;;;24.80
15544;BMP180;7873;52.230;12.856;2023-07-31T07:00:21;100159.59;;;24.79
15544;BMP180;7873;52.230;12.856;2023-07-31T07:02:49;100153.38;;;24.79
15544;BMP180;7873;52.230;12.856;2023-07-31T07:05:16;100151.69;;;24.78
15544;BMP180;7873;52.230;12.856;2023-07-31T07:07:43;100164.34;;;24.77
15544;BMP180;7873;52.230;12.856;2023-07-31T07:10:11;100158.13;;;24.77
15544;BMP180;7873;52.230;12.856;2023-07-31T07:12:38;100161.44;;;24.79
15544;BMP180;7873;52.230;12.856;2023-07-31T07:15:06;100163.31;;;24.78
15544;BMP180;7873;52.230;12.856;2023-07-31T07:17:32;100167.84;;;24.78
15544;BMP180;7873;52.230;12.856;2023-07-31T07:20:00;100169.75;;;24.77
15544;BMP180;7873;52.230;12.856;2023-07-31T07:22:27;100167.84;;;24.78
15544;BMP180;7873;52.230;12.856;2023-07-31T07:24:53;100166.19;;;24.77
15544;BMP180;7873;52.230;12.856;2023-07-31T07:27:21;100161.84;;;24.76
15544;BMP180;7873;52.230;12.856;2023-07-31T07:29:50;100171.81;;;24.75
15544;BMP180;7873;52.230;12.856;2023-07-31T07:32:17;100176.34;;;24.75
15544;BMP180;7873;52.230;12.856;2023-07-31T07:34:43;100169.13;;;24.75
15544;BMP180;7873;52.230;12.856;2023-07-31T07:37:11;100168.25;;;24.75
15544;BMP180;7873;52.230;12.856;2023-07-31T07:39:37;100167.44;;;24.74
15544;BMP180;7873;52.230;12.856;2023-07-31T07:42:04;100172.84;;;24.74
15544;BMP180;7873;52.230;12.856;2023-07-31T07:44:32;100168.47;;;24.73
15544;BMP180;7873;52.230;12.856;2023-07-31T07:46:59;100165.13;;;24.71
15544;BMP180;7873;52.230;12.856;2023-07-31T07:49:26;100162.44;;;24.71
15544;BMP180;7873;52.230;12.856;2023-07-31T07:51:52;100159.75;;;24.71
15544;BMP180;7873;52.230;12.856;2023-07-31T07:54:19;100148.97;;;24.71
15544;BMP180;7873;52.230;12.856;2023-07-31T07:56:46;100150.66;;;24.72
15544;BMP180;7873;52.230;12.856;2023-07-31T07:59:13;100155.22;;;24.72
15544;BMP180;7873;52.230;12.856;2023-07-31T08:01:41;100154.19;;;24.73
15544;BMP180;7873;52.230;12.856;2023-07-31T08:04:08;100152.50;;;24.72
15544;BMP180;7873;52.230;12.856;2023-07-31T08:06:34;100152.50;;;24.72
15544;BMP180;7873;52.230;12.856;2023-07-31T08:09:01;100160.78;;;24.70
15544;BMP180;7873;52.230;12.856;2023-07-31T08:11:31;100163.28;;;24.72
15544;BMP180;7873;52.230;12.856;2023-07-31T08:13:58;100155.41;;;24.70
15544;BMP180;7873;52.230;12.856;2023-07-31T08:16:24;100159.97;;;24.70
15544;BMP180;7873;52.230;12.856;2023-07-31T08:18:52;100158.31;;;24.69
15544;BMP180;7873;52.230;12.856;2023-07-31T08:21:20;100154.78;;;24.68
15544;BMP180;7873;52.230;12.856;2023-07-31T08:23:47;100148.56;;;24.68
15544;BMP180;7873;52.230;12.856;2023-07-31T08:26:15;100141.31;;;24.68
15544;BMP180;7873;52.230;12.856;2023-07-31T08:28:42;100146.69;;;24.68
15544;BMP180;7873;52.230;12.856;2023-07-31T08:31:08;100140.28;;;24.69
15544;BMP180;7873;52.230;12.856;2023-07-31T08:33:36;100145.66;;;24.69
15544;BMP180;7873;52.230;12.856;2023-07-31T08:36:04;100136.56;;;24.70
15544;BMP180;7873;52.230;12.856;2023-07-31T08:38:31;100143.81;;;24.70
15544;BMP180;7873;52.230;12.856;2023-07-31T08:40:58;100144.84;;;24.69
15544;BMP180;7873;52.230;12.856;2023-07-31T08:43:25;100147.53;;;24.69
15544;BMP180;7873;52.230;12.856;2023-07-31T08:45:52;100131.38;;;24.69
15544;BMP180;7873;52.230;12.856;2023-07-31T08:48:20;100135.91;;;24.68
15544;BMP180;7873;52.230;12.856;2023-07-31T08:50:47;100135.91;;;24.68
15544;BMP180;7873;52.230;12.856;2023-07-31T08:53:15;100135.28;;;24.66
15544;BMP180;7873;52.230;12.856;2023-07-31T08:55:42;100129.91;;;24.66
15544;BMP180;7873;52.230;12.856;2023-07-31T08:58:12;100126.59;;;24.64
15544;BMP180;7873;52.230;12.856;2023-07-31T09:00:40;100134.66;;;24.64
15544;BMP180;7873;52.230;12.856;2023-07-31T09:03:13;100122.06;;;24.65
15544;BMP180;7873;52.230;12.856;2023-07-31T09:05:42;100131.16;;;24.64
15544;BMP180;7873;52.230;12.856;2023-07-31T09:08:09;100127.63;;;24.63
15544;BMP180;7873;52.230;12.856;2023-07-31T09:10:41;100130.31;;;24.63
15544;BMP180;7873;52.230;12.856;2023-07-31T09:13:08;100119.56;;;24.63
15544;BMP180;7873;52.230;12.856;2023-07-31T09:15:35;100120.59;;;24.62
15544;BMP180;7873;52.230;12.856;2023-07-31T09:18:04;100121.44;;;24.63
15544;BMP180;7873;52.230;12.856;2023-07-31T09:20:31;100119.78;;;24.62
15544;BMP180;7873;52.230;12.856;2023-07-31T09:23:05;100125.97;;;24.62
15544;BMP180;7873;52.230;12.856;2023-07-31T09:25:32;100115.81;;;24.64
15544;BMP180;7873;52.230;12.856;2023-07-31T09:28:02;100125.78;;;24.64
15544;BMP180;7873;52.230;12.856;2023-07-31T09:30:29;100114.78;;;24.65
15544;BMP180;7873;52.230;12.856;2023-07-31T09:33:00;100112.31;;;24.64
15544;BMP180;7873;52.230;12.856;2023-07-31T09:35:28;100112.31;;;24.64
15544;BMP180;7873;52.230;12.856;2023-07-31T09:37:57;100106.94;;;24.64
15544;BMP180;7873;52.230;12.856;2023-07-31T09:40:26;100113.13;;;24.64
15544;BMP180;7873;52.230;12.856;2023-07-31T09:42:54;100099.91;;;24.63
15544;BMP180;7873;52.230;12.856;2023-07-31T09:45:23;100106.94;;;24.64
15544;BMP180;7873;52.230;12.856;2023-07-31T09:47:50;100116.66;;;24.65
15544;BMP180;7873;52.230;12.856;2023-07-31T09:50:17;100109.63;;;24.64
15544;BMP180;7873;52.230;12.856;2023-07-31T09:52:44;100104.44;;;24.62
15544;BMP180;7873;52.230;12.856;2023-07-31T09:55:12;100110.84;;;24.61
15544;BMP180;7873;52.230;12.856;2023-07-31T09:57:40;100101.75;;;24.62
15544;BMP180;7873;52.230;12.856;2023-07-31T10:00:09;100105.28;;;24.63
15544;BMP180;7873;52.230;12.856;2023-07-31T10:02:38;100094.50;;;24.63
15544;BMP180;7873;52.230;12.856;2023-07-31T10:05:06;100091.81;;;24.63
15544;BMP180;7873;52.230;12.856;2023-07-31T10:07:38;100092.63;;;24.63
15544;BMP180;7873;52.230;12.856;2023-07-31T10:10:07;100092.63;;;24.63
15544;BMP180;7873;52.230;12.856;2023-07-31T10:12:35;100087.47;;;24.62
15544;BMP180;7873;52.230;12.856;2023-07-31T10:15:03;100093.66;;;24.62
15544;BMP180;7873;52.230;12.856;2023-07-31T10:17:30;100082.91;;;24.62
15544;BMP180;7873;52.230;12.856;2023-07-31T10:19:59;100074.19;;;24.60
15544;BMP180;7873;52.230;12.856;2023-07-31T10:22:27;100091.38;;;24.59
15544;BMP180;7873;52.230;12.856;2023-07-31T10:24:54;100088.88;;;24.58
15544;BMP180;7873;52.230;12.856;2023-07-31T10:27:22;100081.84;;;24.57
15544;BMP180;7873;52.230;12.856;2023-07-31T10:29:50;100075.66;;;24.56
15544;BMP180;7873;52.230;12.856;2023-07-31T10:32:19;100070.25;;;24.56
15544;BMP180;7873;52.230;12.856;2023-07-31T10:34:48;100078.34;;;24.56
15544;BMP180;7873;52.230;12.856;2023-07-31T10:37:24;100073.97;;;24.55
15544;BMP180;7873;52.230;12.856;2023-07-31T10:39:56;100065.91;;;24.55
15544;BMP180;7873;52.230;12.856;2023-07-31T10:42:28;100066.72;;;24.56
15544;BMP180;7873;52.230;12.856;2023-07-31T10:44:58;100072.09;;;24.56
15544;BMP180;7873;52.230;12.856;2023-07-31T10:47:25;100057.84;;;24.55
15544;BMP180;7873;52.230;12.856;2023-07-31T10:49:51;100062.38;;;24.55
15544;BMP180;7873;52.230;12.856;2023-07-31T10:52:20;100057.84;;;24.55
15544;BMP180;7873;52.230;12.856;2023-07-31T10:55:23;100052.63;;;24.54
15544;BMP180;7873;52.230;12.856;2023-07-31T10:57:50;100049.75;;;24.55
15544;BMP180;7873;52.230;12.856;2023-07-31T11:00:22;100047.25;;;24.54
15544;BMP180;7873;52.230;12.856;2023-07-31T11:03:00;100063.41;;;24.54
15544;BMP180;7873;52.230;12.856;2023-07-31T11:05:50;100065.06;;;24.55
15544;BMP180;7873;52.230;12.856;2023-07-31T11:08:20;100063.41;;;24.54
15544;BMP180;7873;52.230;12.856;2023-07-31T11:10:50;100054.53;;;24.53
15544;BMP180;7873;52.230;12.856;2023-07-31T11:13:17;100042.09;;;24.52
15544;BMP180;7873;52.230;12.856;2023-07-31T11:15:44;100052.00;;;24.52
15544;BMP180;7873;52.230;12.856;2023-07-31T11:18:11;100054.53;;;24.53
15544;BMP180;7873;52.230;12.856;2023-07-31T11:20:38;100055.56;;;24.52
15544;BMP180;7873;52.230;12.856;2023-07-31T11:23:08;100055.56;;;24.52
15544;BMP180;7873;52.230;12.856;2023-07-31T11:25:36;100054.69;;;24.52
15544;BMP180;7873;52.230;12.856;2023-07-31T11:28:06;100044.78;;;24.52
15544;BMP180;7873;52.230;12.856;2023-07-31T11:30:33;100044.78;;;24.52
15544;BMP180;7873;52.230;12.856;2023-07-31T11:33:02;100043.94;;;24.52
15544;BMP180;7873;52.230;12.856;2023-07-31T11:35:30;100046.63;;;24.52
15544;BMP180;7873;52.230;12.856;2023-07-31T11:37:57;100041.25;;;24.52
15544;BMP180;7873;52.230;12.856;2023-07-31T11:40:24;100048.50;;;24.51
15544;BMP180;7873;52.230;12.856;2023-07-31T11:42:57;100041.44;;;24.50
15544;BMP180;7873;52.230;12.856;2023-07-31T11:45:26;100048.66;;;24.50
15544;BMP180;7873;52.230;12.856;2023-07-31T11:47:54;100039.59;;;24.51
15544;BMP180;7873;52.230;12.856;2023-07-31T11:50:22;100044.97;;;24.51
15544;BMP180;7873;52.230;12.856;2023-07-31T11:52:52;100044.13;;;24.50
15544;BMP180;7873;52.230;12.856;2023-07-31T11:55:19;100039.59;;;24.51
15544;BMP180;7873;52.230;12.856;2023-07-31T11:57:46;100038.94;;;24.49
15544;BMP180;7873;52.230;12.856;2023-07-31T12:00:14;100036.25;;;24.49
15544;BMP180;7873;52.230;12.856;2023-07-31T12:02:43;100038.13;;;24.48
15544;BMP180;7873;52.230;12.856;2023-07-31T12:05:11;100031.72;;;24.49
15544;BMP180;7873;52.230;12.856;2023-07-31T12:07:45;100037.91;;;24.50
15544;BMP180;7873;52.230;12.856;2023-07-31T12:10:23;100036.91;;;24.51
15544;BMP180;7873;52.230;12.856;2023-07-31T12:12:58;100026.31;;;24.49
15544;BMP180;7873;52.230;12.856;2023-07-31T12:15:29;100030.66;;;24.50
15544;BMP180;7873;52.230;12.856;2023-07-31T12:17:58;100027.97;;;24.50
15544;BMP180;7873;52.230;12.856;2023-07-31T12:20:25;100040.59;;;24.50
15544;BMP180;7873;52.230;12.856;2023-07-31T12:22:56;100028.81;;;24.51
15544;BMP180;7873;52.230;12.856;2023-07-31T12:25:28;100019.91;;;24.50
15544;BMP180;7873;52.230;12.856;2023-07-31T12:27:56;100024.28;;;24.51
15544;BMP180;7873;52.230;12.856;2023-07-31T12:30:27;100024.28;;;24.51
15544;BMP180;7873;52.230;12.856;2023-07-31T12:32:53;100012.66;;;24.51
15544;BMP180;7873;52.230;12.856;2023-07-31T12:35:21;100018.06;;;24.51
15544;BMP180;7873;52.230;12.856;2023-07-31T12:37:48;100017.03;;;24.52
15544;BMP180;7873;52.230;12.856;2023-07-31T12:40:15;100003.56;;;24.52
15544;BMP180;7873;52.230;12.856;2023-07-31T12:42:41;100005.44;;;24.51
15544;BMP180;7873;52.230;12.856;2023-07-31T12:45:09;100000.88;;;24.52
15544;BMP180;7873;52.230;12.856;2023-07-31T12:47:35;99993.66;;;24.52
15544;BMP180;7873;52.230;12.856;2023-07-31T12:50:02;99985.56;;;24.52
15544;BMP180;7873;52.230;12.856;2023-07-31T12:52:30;99987.41;;;24.52
15544;BMP180;7873;52.230;12.856;2023-07-31T12:54:57;99978.53;;;24.51
15544;BMP180;7873;52.230;12.856;2023-07-31T12:57:23;99985.56;;;24.52
15544;BMP180;7873;52.230;12.856;2023-07-31T12:59:50;99972.13;;;24.52
15544;BMP180;7873;52.230;12.856;2023-07-31T13:02:17;99969.41;;;24.52
15544;BMP180;7873;52.230;12.856;2023-07-31T13:04:43;99964.22;;;24.51
15544;BMP180;7873;52.230;12.856;2023-07-31T13:07:10;99964.22;;;24.51
15544;BMP180;7873;52.230;12.856;2023-07-31T13:09:38;99966.72;;;24.52
15544;BMP180;7873;52.230;12.856;2023-07-31T13:12:06;99953.28;;;24.52
15544;BMP180;7873;52.230;12.856;2023-07-31T13:14:32;99959.47;;;24.53
15544;BMP180;7873;52.230;12.856;2023-07-31T13:16:59;99959.47;;;24.53
15544;BMP180;7873;52.230;12.856;2023-07-31T13:19:26;99946.00;;;24.53
15544;BMP180;7873;52.230;12.856;2023-07-31T13:21:53;99964.84;;;24.53
15544;BMP180;7873;52.230;12.856;2023-07-31T13:24:19;99953.28;;;24.52
15544;BMP180;7873;52.230;12.856;2023-07-31T13:26:47;99940.84;;;24.51
15544;BMP180;7873;52.230;12.856;2023-07-31T13:29:14;99948.94;;;24.51
15544;BMP180;7873;52.230;12.856;2023-07-31T13:31:41;99939.16;;;24.50
15544;BMP180;7873;52.230;12.856;2023-07-31T13:34:07;99930.09;;;24.51
15544;BMP180;7873;52.230;12.856;2023-07-31T13:36:34;99933.59;;;24.52
15544;BMP180;7873;52.230;12.856;2023-07-31T13:39:02;99934.44;;;24.52
15544;BMP180;7873;52.230;12.856;2023-07-31T13:41:29;99927.41;;;24.51
15544;BMP180;7873;52.230;12.856;2023-07-31T13:43:57;99931.75;;;24.52
15544;BMP180;7873;52.230;12.856;2023-07-31T13:46:24;99917.44;;;24.52
15544;BMP180;7873;52.230;12.856;2023-07-31T13:48:51;99922.81;;;24.52
15544;BMP180;7873;52.230;12.856;2023-07-31T13:51:20;99920.13;;;24.52
15544;BMP180;7873;52.230;12.856;2023-07-31T13:53:46;99918.28;;;24.52
15544;BMP180;7873;52.230;12.856;2023-07-31T13:56:13;99914.75;;;24.52
15544;BMP180;7873;52.230;12.856;2023-07-31T13:58:40;99918.28;;;24.52
15544;BMP180;7873;52.230;12.856;2023-07-31T14:01:08;99907.50;;;24.52